Terminal Aerodrome Forecast
Issued by NWS Cleveland, OH

Home | Current Version | Previous Version | Text Only | Print | Product List | Glossary Off
Versions: 1 2 3 4 5 6 7 8 9 10 11 12 13 14 15 16 17 18 19 20 21 22 23

427
FTUS41 KCLE 211414 AAB
TAFCLE
TAF AMD
KCLE 211414Z 2114/2218 24004KT 2SM BR BKN002 OVC010
     FM211500 25006KT 3SM BR OVC012
     FM211700 28012KT P6SM SCT012
     FM220100 35014G22KT P6SM BKN035
     FM220800 35014G22KT P6SM BKN025=

USA.gov is the U.S. government's official web portal to all federal, state and local government web resources and services.